Sylvan, Minnesota
Current Conditions -  °F | °C
As of 7:07 AM on Monday 22 Dec 2014 (Local Time) from KBRD Reporting Station
Haze Haze  
Wind Chill: 29°   Ceiling: 500
Heat Index: 36°   Visibility: 4mi
Dew Point: 35°   Wind: 9mph
Humidity: 97%   Direction: 150°SSE
Pressure: 29.6"   Gusts: NA
Location:  46.4437°N, 94.4479°W
Report Text: KBRD 221307Z AUTO 15008KT 4SM BR OVC005 02/02 A2960 RMK AO2 T00220017
Loading
Personal Weather Stations






























Interactive Weather Map New forecast layout! Learn more

10-Day Weather Forecast

Advertisements
Track Severe Weather on mobile